Time;durP1;ratioP1;P1;durP2;ratioP2;P2;SDS_P1;SDS_P2;PMS_P1;PMS_P2;Temp;Humidity;BMP_temperature;BMP_pressure;BME280_temperature;BME280_humidity;BME280_pressure;Samples;Min_cycle;Max_cycle;Signal;HPM_P1;HPM_P2
2023/01/07 05:05:50;;;;;;;3.55;2.05;;;14.00;75.70;;;;;;5010428;23;20411;-69
2023/01/07 05:08:16;;;;;;;7.10;2.53;;;14.00;75.60;;;;;;4919685;29;20456;-69
2023/01/07 05:10:42;;;;;;;5.40;3.35;;;14.00;75.60;;;;;;4920053;29;20052;-69
2023/01/07 05:13:14;;;;;;;7.47;3.17;;;14.10;75.50;;;;;;4928985;29;20199;-71
2023/01/07 05:15:40;;;;;;;6.32;3.90;;;14.10;75.40;;;;;;4926304;29;20052;-70
2023/01/07 05:18:06;;;;;;;5.78;4.07;;;14.10;75.30;;;;;;4931444;29;20051;-70
2023/01/07 05:20:31;;;;;;;7.70;4.28;;;14.20;75.30;;;;;;4927430;29;20062;-75
2023/01/07 05:22:57;;;;;;;10.75;4.82;;;14.20;75.20;;;;;;4928668;29;20050;-71
2023/01/07 05:25:23;;;;;;;9.45;5.35;;;14.20;75.10;;;;;;4912304;29;20048;-71
2023/01/07 05:27:49;;;;;;;9.00;7.45;;;14.20;75.00;;;;;;4921434;29;20108;-74
2023/01/07 05:30:17;;;;;;;10.52;7.85;;;14.10;74.30;;;;;;4904484;29;20040;-72
2023/01/07 05:32:43;;;;;;;8.02;6.50;;;14.10;74.40;;;;;;4910964;29;20052;-77
2023/01/07 05:35:09;;;;;;;9.93;6.82;;;14.00;74.70;;;;;;4924743;29;20356;-72
2023/01/07 05:37:34;;;;;;;8.35;6.07;;;13.90;75.00;;;;;;4924230;29;20076;-72
2023/01/07 05:40:00;;;;;;;5.60;5.00;;;13.90;75.20;;;;;;4923383;29;20083;-74
2023/01/07 05:42:26;;;;;;;7.72;4.85;;;14.00;75.30;;;;;;4916153;29;20540;-71
2023/01/07 05:44:52;;;;;;;10.43;5.60;;;14.20;75.20;;;;;;4920944;29;20440;-73
2023/01/07 05:47:17;;;;;;;16.08;7.05;;;14.40;75.00;;;;;;4904714;29;20056;-73
2023/01/07 05:49:43;;;;;;;16.42;5.32;;;14.40;74.30;;;;;;4920673;29;20419;-75
2023/01/07 05:52:09;;;;;;;17.58;4.90;;;14.60;75.30;;;;;;4921374;29;20048;-75
2023/01/07 05:54:35;;;;;;;21.45;4.75;;;14.70;75.40;;;;;;4904642;29;20048;-73
2023/01/07 05:57:01;;;;;;;15.23;4.05;;;14.90;75.50;;;;;;4920910;29;20063;-74
2023/01/07 05:59:27;;;;;;;41.28;5.30;;;15.00;75.90;;;;;;4921182;29;20056;-73
2023/01/07 06:01:52;;;;;;;20.75;5.35;;;15.10;76.20;;;;;;4920929;29;20139;-72
2023/01/07 06:04:18;;;;;;;32.17;5.50;;;15.20;76.30;;;;;;4920531;29;20154;-77
2023/01/07 06:06:44;;;;;;;26.80;5.20;;;15.30;76.50;;;;;;4920209;29;20078;-72
2023/01/07 06:09:10;;;;;;;19.50;4.25;;;15.30;76.60;;;;;;4920774;29;20059;-73
2023/01/07 06:11:36;;;;;;;17.55;4.32;;;15.30;76.60;;;;;;4920743;29;20052;-77
2023/01/07 06:14:02;;;;;;;20.20;4.55;;;15.40;76.90;;;;;;4920236;29;20126;-73
2023/01/07 06:16:27;;;;;;;19.52;4.03;;;15.40;77.00;;;;;;4920575;29;20401;-74
2023/01/07 06:18:53;;;;;;;15.00;4.30;;;15.40;77.10;;;;;;4920321;29;20040;-73
2023/01/07 06:21:20;;;;;;;18.13;3.90;;;15.50;76.90;;;;;;4920155;29;20048;-73
2023/01/07 06:23:46;;;;;;;16.10;3.13;;;15.40;76.80;;;;;;4920391;29;20119;-72
2023/01/07 06:26:12;;;;;;;10.52;3.90;;;15.50;76.70;;;;;;4920218;29;20427;-73
2023/01/07 06:28:38;;;;;;;24.13;3.58;;;15.60;76.70;;;;;;4903728;29;20130;-73
2023/01/07 06:31:03;;;;;;;9.75;3.00;;;15.70;76.50;;;;;;4920053;29;20147;-74
2023/01/07 06:33:29;;;;;;;16.02;2.70;;;15.80;76.20;;;;;;4920123;29;20045;-73
2023/01/07 06:35:55;;;;;;;15.05;3.03;;;15.90;76.00;;;;;;4920467;29;20048;-72
2023/01/07 06:38:20;;;;;;;13.35;2.72;;;16.00;75.90;;;;;;4920216;29;20146;-76
2023/01/07 06:40:46;;;;;;;11.55;2.53;;;16.10;75.70;;;;;;4919356;29;20052;-75
2023/01/07 06:43:12;;;;;;;9.77;2.78;;;16.10;75.60;;;;;;4903642;29;20059;-72
2023/01/07 06:45:38;;;;;;;9.27;2.58;;;16.20;75.50;;;;;;4919770;29;20047;-75
2023/01/07 06:48:03;;;;;;;8.23;2.55;;;16.20;75.40;;;;;;4918838;29;20048;-77
2023/01/07 06:50:29;;;;;;;8.52;2.58;;;16.20;75.40;;;;;;4920071;29;20110;-74
2023/01/07 06:52:55;;;;;;;12.88;3.45;;;16.30;75.30;;;;;;4919538;29;20123;-74
2023/01/07 06:55:21;;;;;;;12.45;2.60;;;16.30;75.30;;;;;;4919495;29;20055;-74
2023/01/07 06:57:47;;;;;;;15.52;3.22;;;16.30;75.30;;;;;;4923548;29;20591;-77
2023/01/07 07:00:14;;;;;;;15.30;3.17;;;16.30;75.20;;;;;;4921233;29;20140;-77
2023/01/07 07:02:39;;;;;;;18.40;2.80;;;16.30;75.00;;;;;;4919715;29;20474;-75
2023/01/07 07:05:05;;;;;;;15.80;2.97;;;16.20;74.90;;;;;;4903710;29;20044;-74
2023/01/07 07:07:32;;;;;;;25.05;3.55;;;16.20;75.60;;;;;;4902748;29;20066;-77
2023/01/07 07:09:57;;;;;;;16.38;4.18;;;16.20;75.20;;;;;;4920008;29;20099;-74
2023/01/07 07:12:23;;;;;;;18.38;3.35;;;16.20;75.50;;;;;;4919454;29;20043;-73
2023/01/07 07:14:49;;;;;;;13.75;5.13;;;16.10;75.50;;;;;;4919632;29;20063;-74
2023/01/07 07:17:15;;;;;;;18.15;4.50;;;15.60;71.00;;;;;;4920172;29;20447;-74
2023/01/07 07:19:41;;;;;;;16.00;4.40;;;15.30;71.40;;;;;;4918384;29;20091;-79
2023/01/07 07:22:06;;;;;;;21.73;4.85;;;15.00;72.80;;;;;;4919670;29;20122;-76
2023/01/07 07:24:32;;;;;;;21.88;3.90;;;14.90;73.20;;;;;;4919145;29;20455;-76
2023/01/07 07:26:59;;;;;;;21.50;4.13;;;15.00;76.20;;;;;;4919402;29;20058;-74
2023/01/07 07:29:24;;;;;;;10.00;4.07;;;15.00;74.00;;;;;;4919062;29;20086;-72
2023/01/07 07:31:50;;;;;;;17.67;4.82;;;14.90;73.70;;;;;;4919203;29;20067;-72
2023/01/07 07:34:16;;;;;;;9.82;3.45;;;14.80;74.40;;;;;;4918995;29;20040;-74
2023/01/07 07:36:41;;;;;;;9.05;3.45;;;14.70;74.30;;;;;;4918205;29;20436;-75
2023/01/07 07:39:07;;;;;;;12.32;4.00;;;14.60;75.30;;;;;;4919260;29;20090;-74
2023/01/07 07:41:33;;;;;;;12.93;4.07;;;14.60;74.50;;;;;;4918459;29;20127;-74
2023/01/07 07:43:58;;;;;;;15.43;3.92;;;14.60;75.00;;;;;;4918929;29;20436;-76
2023/01/07 07:46:24;;;;;;;12.68;4.30;;;14.50;75.30;;;;;;4919131;29;20115;-74
2023/01/07 07:48:50;;;;;;;20.77;3.80;;;14.50;75.70;;;;;;4919280;29;20447;-73
2023/01/07 07:51:16;;;;;;;17.25;3.70;;;14.60;77.60;;;;;;4918906;29;20439;-75
2023/01/07 07:53:42;;;;;;;17.90;3.72;;;15.00;78.00;;;;;;4918000;29;20067;-75
2023/01/07 07:56:08;;;;;;;16.73;4.25;;;15.20;77.80;;;;;;4918896;29;20047;-75
2023/01/07 07:58:34;;;;;;;9.57;3.72;;;15.30;75.70;;;;;;4919346;29;20363;-78
2023/01/07 08:00:59;;;;;;;14.07;4.47;;;15.20;74.80;;;;;;4919194;29;20048;-80
2023/01/07 08:03:25;;;;;;;10.85;4.30;;;15.10;74.40;;;;;;4902844;29;20060;-75
2023/01/07 08:05:51;;;;;;;5.35;3.63;;;15.10;74.20;;;;;;4918930;29;20052;-74
2023/01/07 08:08:16;;;;;;;7.85;4.32;;;14.90;74.30;;;;;;4926516;29;20047;-75
2023/01/07 08:10:42;;;;;;;6.20;3.20;;;14.90;74.70;;;;;;4926982;29;20059;-71
2023/01/07 08:13:09;;;;;;;7.57;3.55;;;14.80;74.70;;;;;;4927164;29;20044;-76
2023/01/07 08:15:35;;;;;;;6.20;3.30;;;14.80;74.80;;;;;;4925781;29;20514;-74
2023/01/07 08:18:04;;;;;;;8.55;3.25;;;14.80;74.90;;;;;;4928666;29;20123;-76
2023/01/07 08:20:32;;;;;;;7.43;3.60;;;14.70;74.90;;;;;;4927069;29;20418;-75
2023/01/07 08:22:59;;;;;;;5.55;3.35;;;14.70;75.10;;;;;;4927856;29;20070;-73
2023/01/07 08:25:26;;;;;;;5.63;3.10;;;14.70;75.20;;;;;;4925333;29;20068;-75
2023/01/07 08:27:53;;;;;;;9.57;2.70;;;14.70;75.20;;;;;;4928060;29;20451;-75
2023/01/07 08:30:19;;;;;;;8.48;3.15;;;14.70;75.20;;;;;;4911558;29;20118;-77
2023/01/07 08:32:45;;;;;;;7.70;2.50;;;14.70;75.30;;;;;;4911669;29;20127;-75
2023/01/07 08:35:11;;;;;;;4.85;2.83;;;14.60;75.30;;;;;;4927302;29;20091;-74
2023/01/07 08:37:37;;;;;;;4.00;2.58;;;14.70;75.40;;;;;;4910485;29;20450;-76
2023/01/07 08:40:04;;;;;;;5.97;2.95;;;14.60;75.40;;;;;;4924562;29;20079;-76
2023/01/07 08:42:30;;;;;;;3.83;2.38;;;14.60;75.50;;;;;;4927877;29;20043;-75
2023/01/07 08:44:56;;;;;;;4.80;2.63;;;14.60;75.60;;;;;;4934966;29;20063;-78
2023/01/07 08:47:21;;;;;;;6.93;2.30;;;14.60;75.70;;;;;;4926335;29;20107;-78
2023/01/07 08:49:47;;;;;;;3.63;2.22;;;14.60;75.70;;;;;;4928567;29;20044;-77
2023/01/07 08:52:13;;;;;;;3.88;2.00;;;14.60;75.70;;;;;;4928214;29;20035;-75
2023/01/07 08:54:39;;;;;;;4.97;2.50;;;14.60;75.80;;;;;;4925903;29;20419;-77
2023/01/07 08:57:04;;;;;;;5.25;2.35;;;14.60;76.40;;;;;;4922385;29;20055;-79
2023/01/07 08:59:30;;;;;;;6.10;2.20;;;14.60;75.80;;;;;;4925622;29;20459;-80
2023/01/07 09:01:56;;;;;;;4.43;2.08;;;14.60;75.80;;;;;;4934844;29;20418;-74
2023/01/07 09:04:22;;;;;;;5.18;2.33;;;14.60;75.80;;;;;;4928924;29;20031;-79
2023/01/07 09:06:48;;;;;;;5.20;1.80;;;14.60;75.90;;;;;;4926770;29;20150;-78
2023/01/07 09:09:15;;;;;;;4.78;2.30;;;14.60;75.90;;;;;;4925308;29;20056;-76
2023/01/07 09:11:41;;;;;;;4.22;1.80;;;14.50;76.10;;;;;;4909969;29;20122;-77
2023/01/07 09:14:07;;;;;;;2.78;1.80;;;14.50;76.10;;;;;;4927268;29;20048;-76
2023/01/07 09:16:33;;;;;;;4.38;1.70;;;14.50;76.20;;;;;;4930435;29;20399;-77
2023/01/07 09:18:59;;;;;;;3.85;1.95;;;14.50;76.30;;;;;;4940621;29;20043;-76
2023/01/07 09:21:24;;;;;;;2.25;1.40;;;14.50;76.20;;;;;;4940435;29;20044;-76
2023/01/07 09:23:50;;;;;;;9.13;2.20;;;14.50;76.20;;;;;;4940064;29;20051;-75
2023/01/07 09:26:16;;;;;;;11.88;2.90;;;14.60;76.00;;;;;;4938178;29;20043;-73
2023/01/07 09:28:42;;;;;;;7.45;2.30;;;14.60;75.90;;;;;;4921116;29;20522;-73
2023/01/07 09:31:07;;;;;;;7.00;2.40;;;14.60;75.70;;;;;;4920941;29;20059;-80
2023/01/07 09:33:33;;;;;;;5.72;2.20;;;14.60;75.60;;;;;;4920930;29;20044;-79
2023/01/07 09:35:59;;;;;;;4.72;2.15;;;14.60;74.90;;;;;;4921624;29;20349;-76
2023/01/07 09:38:25;;;;;;;7.70;2.72;;;14.70;74.20;;;;;;4921076;29;20043;-77
2023/01/07 09:40:51;;;;;;;7.40;1.90;;;14.60;73.40;;;;;;4921329;29;20455;-77
2023/01/07 09:43:26;;;;;;;5.07;2.38;;;14.60;73.30;;;;;;4921183;29;20059;-74
2023/01/07 09:45:55;;;;;;;5.63;1.80;;;14.60;73.30;;;;;;4921188;29;20420;-76
2023/01/07 09:48:34;;;;;;;7.88;2.33;;;14.70;73.40;;;;;;4921541;29;20363;-75
2023/01/07 09:51:08;;;;;;;6.90;1.80;;;14.90;73.50;;;;;;4921291;29;20063;-77
2023/01/07 09:54:00;;;;;;;;;;;15.10;73.30;;;;;;4921597;29;20048;-75
2023/01/07 09:56:28;;;;;;;6.93;2.20;;;15.30;73.20;;;;;;4917689;29;19933;-75
2023/01/07 09:58:56;;;;;;;7.38;1.40;;;15.40;73.00;;;;;;4920381;29;20052;-75
2023/01/07 10:02:17;;;;;;;6.45;1.30;;;15.50;73.00;;;;;;4920186;29;20060;-75
2023/01/07 10:04:52;;;;;;;9.02;1.75;;;15.50;72.90;;;;;;4862610;29;20064;-74
2023/01/07 10:07:42;;;;;;;4.65;1.30;;;15.60;72.90;;;;;;4919542;29;20140;-74
2023/01/07 10:10:19;;;;;;;7.85;1.30;;;15.60;72.90;;;;;;4920911;29;20486;-75
2023/01/07 10:13:07;;;;;;;8.48;1.77;;;15.60;73.10;;;;;;4920738;29;20083;-75
2023/01/07 10:15:39;;;;;;;7.78;1.23;;;15.60;73.00;;;;;;4920397;29;20048;-76
2023/01/07 10:18:32;;;;;;;10.43;1.30;;;15.70;73.10;;;;;;4920110;29;20043;-75
2023/01/07 10:21:15;;;;;;;11.55;1.88;;;15.70;73.20;;;;;;4892345;29;20066;-77
2023/01/07 10:23:45;;;;;;;11.57;1.60;;;15.70;73.20;;;;;;4919791;29;20443;-76
2023/01/07 10:26:47;;;;;;;12.32;2.17;;;15.80;73.30;;;;;;4920755;29;20052;-76
2023/01/07 10:29:27;;;;;;;35.65;5.05;;;15.80;73.50;;;;;;4885506;29;20135;-76
2023/01/07 10:31:57;;;;;;;26.30;3.90;;;15.80;73.60;;;;;;4919903;29;20048;-77
2023/01/07 10:34:31;;;;;;;41.55;4.68;;;15.70;73.60;;;;;;4919863;29;20063;-76
2023/01/07 10:37:22;;;;;;;21.65;3.90;;;15.80;73.70;;;;;;4920504;29;20052;-74
2023/01/07 10:40:19;;;;;;;25.77;2.95;;;15.70;73.20;;;;;;4919951;29;20055;-79
2023/01/07 10:43:11;;;;;;;24.42;3.67;;;15.80;74.10;;;;;;4920048;29;20076;-74
2023/01/07 10:46:04;;;;;;;23.08;3.15;;;15.90;72.30;;;;;;4892513;29;20150;-75
2023/01/07 10:48:54;;;;;;;20.15;2.47;;;16.00;74.00;;;;;;4920239;29;20051;-76
2023/01/07 10:51:48;;;;;;;15.38;3.05;;;16.10;73.70;;;;;;4920157;29;20058;-78
2023/01/07 10:54:35;;;;;;;12.25;2.30;;;16.20;73.00;;;;;;4903065;29;20119;-76
2023/01/07 10:57:09;;;;;;;12.40;2.22;;;16.30;72.70;;;;;;4902912;29;20052;-77
2023/01/07 10:59:35;;;;;;;12.85;1.67;;;16.30;72.30;;;;;;4919842;29;20048;-79
2023/01/07 11:02:02;;;;;;;10.48;1.33;;;16.40;71.60;;;;;;4887829;29;20051;-81
2023/01/07 11:04:31;;;;;;;10.77;1.30;;;16.40;71.10;;;;;;4918240;29;20491;-76
2023/01/07 11:07:03;;;;;;;10.70;1.77;;;16.50;70.90;;;;;;4919740;29;20063;-75
2023/01/07 11:09:40;;;;;;;10.68;1.52;;;16.50;70.50;;;;;;4918954;29;20059;-77
2023/01/07 11:12:24;;;;;;;13.20;1.38;;;16.50;70.30;;;;;;4902635;29;20062;-77
2023/01/07 11:14:52;;;;;;;10.43;2.08;;;16.50;70.40;;;;;;4919599;29;20074;-77
2023/01/07 11:17:54;;;;;;;14.15;1.92;;;16.50;70.80;;;;;;4903205;29;20060;-79
2023/01/07 11:20:43;;;;;;;9.80;1.10;;;16.60;70.90;;;;;;4918901;29;20294;-76
2023/01/07 11:23:36;;;;;;;10.35;1.70;;;16.60;71.20;;;;;;4919530;29;20047;-78
2023/01/07 11:26:10;;;;;;;9.70;1.60;;;16.60;71.40;;;;;;4916371;29;20122;-78
2023/01/07 11:28:40;;;;;;;11.30;2.00;;;16.60;71.60;;;;;;4902651;29;20143;-78
2023/01/07 11:31:05;;;;;;;16.65;2.08;;;16.60;71.90;;;;;;4902101;29;20100;-76
2023/01/07 11:33:38;;;;;;;11.80;1.75;;;16.60;72.10;;;;;;4919389;29;20095;-79
2023/01/07 11:36:06;;;;;;;14.38;1.75;;;16.60;72.40;;;;;;4919003;29;20127;-76
2023/01/07 11:38:35;;;;;;;8.38;1.95;;;16.60;72.60;;;;;;4919090;29;20055;-77
2023/01/07 11:41:02;;;;;;;9.98;1.77;;;16.50;72.80;;;;;;4919275;29;20073;-78
2023/01/07 11:43:34;;;;;;;8.68;1.50;;;16.50;73.20;;;;;;4918555;29;20063;-79
2023/01/07 11:46:03;;;;;;;10.98;1.50;;;16.50;73.20;;;;;;4917853;29;20047;-80
2023/01/07 11:48:37;;;;;;;13.73;1.58;;;16.50;72.90;;;;;;4918942;29;20123;-78
2023/01/07 11:51:11;;;;;;;8.02;1.35;;;16.50;72.70;;;;;;4918823;29;20051;-79
2023/01/07 11:53:51;;;;;;;7.95;1.17;;;16.50;72.60;;;;;;4919114;29;20056;-79
2023/01/07 11:56:19;;;;;;;17.48;2.00;;;16.40;72.40;;;;;;4918967;29;20096;-77
2023/01/07 11:59:10;;;;;;;9.38;1.73;;;16.50;72.30;;;;;;4919009;29;20087;-78
2023/01/07 12:01:52;;;;;;;7.10;1.30;;;16.50;72.20;;;;;;4918945;29;20056;-79
2023/01/07 12:04:35;;;;;;;8.30;1.33;;;16.50;72.00;;;;;;4919085;29;20172;-80
2023/01/07 12:07:15;;;;;;;17.75;2.35;;;16.40;71.80;;;;;;4918850;29;20052;-77
2023/01/07 12:09:42;;;;;;;12.50;2.78;;;16.30;71.70;;;;;;4902733;29;20151;-76
2023/01/07 12:12:38;;;;;;;13.90;2.10;;;16.40;72.20;;;;;;4918451;29;20376;-78
2023/01/07 12:15:15;;;;;;;6.72;1.40;;;16.30;72.00;;;;;;4918981;29;20048;-77
2023/01/07 12:17:46;;;;;;;11.25;1.30;;;16.30;71.50;;;;;;4918719;29;20044;-79
2023/01/07 12:20:33;;;;;;;12.05;1.38;;;16.30;71.40;;;;;;4901823;29;20431;-76
2023/01/07 12:23:10;;;;;;;14.13;1.73;;;16.20;71.00;;;;;;4918790;29;20040;-77
2023/01/07 12:25:43;;;;;;;7.25;1.67;;;16.20;71.10;;;;;;4918562;29;20111;-77
2023/01/07 12:28:25;;;;;;;13.40;1.58;;;16.20;70.20;;;;;;4918364;29;20472;-77
2023/01/07 12:31:02;;;;;;;11.45;1.65;;;16.20;69.60;;;;;;4918258;29;20044;-78
2023/01/07 12:34:00;;;;;;;11.80;1.35;;;16.10;69.40;;;;;;4915903;29;20135;-77
2023/01/07 12:37:00;;;;;;;4.47;0.90;;;16.20;68.20;;;;;;4894183;29;20451;-78
2023/01/07 12:39:41;;;;;;;3.70;1.02;;;16.10;66.40;;;;;;4918634;29;20116;-78
2023/01/07 12:42:19;;;;;;;4.63;0.68;;;16.00;66.80;;;;;;4902266;29;20084;-75
2023/01/07 12:44:51;;;;;;;3.35;0.60;;;15.80;68.30;;;;;;4916187;29;20533;-78
2023/01/07 12:47:45;;;;;;;4.93;0.90;;;15.70;69.00;;;;;;4918443;29;20376;-85
2023/01/07 12:50:13;;;;;;;5.35;0.70;;;15.60;69.90;;;;;;4912645;29;20060;-78
2023/01/07 12:53:09;;;;;;;7.05;0.80;;;15.50;70.20;;;;;;4918514;29;20076;-76
2023/01/07 12:55:38;;;;;;;5.47;0.75;;;15.50;70.70;;;;;;4919667;29;20618;-79
2023/01/07 12:58:07;;;;;;;6.00;1.02;;;15.30;71.00;;;;;;4921452;29;20055;-78
2023/01/07 13:00:51;;;;;;;5.75;0.90;;;15.30;71.20;;;;;;4901887;29;20063;-76
2023/01/07 13:03:36;;;;;;;4.25;0.95;;;15.30;71.30;;;;;;4920419;29;20383;-73
2023/01/07 13:06:16;;;;;;;6.35;0.55;;;15.30;71.30;;;;;;4904062;29;20522;-75
2023/01/07 13:08:57;;;;;;;2.90;0.60;;;15.30;71.00;;;;;;4920483;29;20059;-75
2023/01/07 13:14:44;;;;;;;2.10;0.60;;;15.30;70.70;;;;;;4921181;29;20131;-73
2023/01/07 13:17:39;;;;;;;1.45;0.50;;;15.40;70.20;;;;;;4921432;29;20423;-74
2023/01/07 13:20:13;;;;;;;1.38;0.60;;;15.40;70.00;;;;;;4915184;29;20111;-81
2023/01/07 13:22:44;;;;;;;1.77;0.60;;;15.40;69.70;;;;;;4920111;29;20415;-75
2023/01/07 13:25:47;;;;;;;3.50;0.55;;;15.30;69.70;;;;;;4918425;29;20120;-74
2023/01/07 13:28:47;;;;;;;0.98;0.38;;;15.30;69.80;;;;;;4919184;29;20059;-75
2023/01/07 13:31:32;;;;;;;1.70;0.55;;;15.30;70.50;;;;;;4919042;29;20060;-76
2023/01/07 13:34:53;;;;;;;4.15;0.40;;;15.20;70.60;;;;;;4916424;29;20104;-76
2023/01/07 13:37:50;;;;;;;6.05;0.88;;;15.20;69.90;;;;;;4828953;29;20142;-80
2023/01/07 13:40:19;;;;;;;4.65;0.60;;;15.30;69.30;;;;;;4920142;29;20137;-75
2023/01/07 13:43:03;;;;;;;5.38;1.50;;;15.30;69.00;;;;;;4917621;29;20043;-75
2023/01/07 13:45:34;;;;;;;3.20;0.63;;;15.40;68.10;;;;;;4920559;29;20443;-77
2023/01/07 13:48:04;;;;;;;14.02;1.77;;;15.40;67.90;;;;;;4920457;29;20412;-75
2023/01/07 13:50:43;;;;;;;6.35;1.00;;;15.40;67.90;;;;;;4903605;29;20478;-73
2023/01/07 13:53:15;;;;;;;8.80;1.10;;;15.40;68.40;;;;;;4918591;29;20032;-76
2023/01/07 13:55:45;;;;;;;6.55;1.00;;;15.40;68.60;;;;;;4919149;29;20053;-75
2023/01/07 13:58:41;;;;;;;5.97;0.63;;;15.50;68.50;;;;;;4917515;29;20040;-74
2023/01/07 14:01:08;;;;;;;5.10;0.68;;;15.40;68.40;;;;;;4912904;29;20056;-73
2023/01/07 14:03:57;;;;;;;6.60;0.65;;;15.40;68.50;;;;;;4920676;29;20051;-72
2023/01/07 14:06:26;;;;;;;6.05;1.00;;;15.40;68.50;;;;;;4903049;29;20063;-72
2023/01/07 14:08:57;;;;;;;5.88;1.15;;;15.40;68.80;;;;;;4919840;29;20052;-73
2023/01/07 14:11:28;;;;;;;8.73;1.10;;;15.40;69.00;;;;;;4918818;29;20055;-74
2023/01/07 14:14:29;;;;;;;7.20;0.65;;;15.40;69.20;;;;;;4919803;29;20106;-73
2023/01/07 14:17:13;;;;;;;4.30;0.60;;;15.40;69.30;;;;;;4919030;29;20075;-76
2023/01/07 14:19:50;;;;;;;6.15;0.70;;;15.40;69.40;;;;;;4903011;29;20052;-73
2023/01/07 14:22:23;;;;;;;12.95;0.70;;;15.40;69.70;;;;;;4914263;29;20048;-70
2023/01/07 14:25:06;;;;;;;3.95;0.57;;;15.40;69.80;;;;;;4916435;29;20040;-70
2023/01/07 14:28:05;;;;;;;6.95;0.95;;;15.40;69.80;;;;;;4917757;29;20497;-77
2023/01/07 14:30:43;;;;;;;6.63;1.10;;;15.40;70.00;;;;;;4890361;29;20040;-72
2023/01/07 14:33:23;;;;;;;9.98;0.95;;;15.40;70.20;;;;;;4906731;29;20056;-72
2023/01/07 14:35:59;;;;;;;8.18;0.75;;;15.40;70.30;;;;;;4920077;29;20079;-73
2023/01/07 14:38:30;;;;;;;6.93;1.13;;;15.40;70.50;;;;;;4918960;29;20059;-70
2023/01/07 14:41:06;;;;;;;4.70;0.95;;;15.30;70.40;;;;;;4920394;29;20341;-71
2023/01/07 14:43:42;;;;;;;4.28;0.90;;;15.40;70.50;;;;;;4919687;29;20048;-71
2023/01/07 14:46:22;;;;;;;7.35;0.65;;;15.40;70.50;;;;;;4919950;29;20056;-73
2023/01/07 14:49:03;;;;;;;5.53;1.02;;;15.30;70.60;;;;;;4919861;29;20044;-76
2023/01/07 14:51:39;;;;;;;6.90;0.68;;;15.30;70.60;;;;;;4901270;29;20123;-72
2023/01/07 14:54:24;;;;;;;10.30;0.70;;;15.40;70.70;;;;;;4904570;29;20086;-72
2023/01/07 14:57:09;;;;;;;6.20;0.95;;;15.30;70.80;;;;;;4910916;29;20080;-73
2023/01/07 14:59:59;;;;;;;7.28;0.80;;;15.40;70.90;;;;;;4920146;29;20055;-72
2023/01/07 15:02:43;;;;;;;6.13;1.00;;;15.30;71.00;;;;;;4901047;29;20048;-75
2023/01/07 15:05:11;;;;;;;6.45;1.08;;;15.30;71.10;;;;;;4918143;29;20052;-72
2023/01/07 15:07:41;;;;;;;8.82;1.60;;;15.40;70.90;;;;;;4918935;29;20056;-75
2023/01/07 15:16:01;;;;;;;12.13;1.63;;;15.30;69.10;;;;;;4919736;29;20044;-73
2023/01/07 15:18:30;;;;;;;12.05;1.45;;;15.30;69.50;;;;;;4919865;29;20044;-74
2023/01/07 15:21:33;;;;;;;6.43;1.10;;;15.30;69.50;;;;;;4918727;29;20062;-71
2023/01/07 15:24:05;;;;;;;3.38;1.15;;;15.40;70.00;;;;;;4902712;29;20065;-72
2023/01/07 15:26:49;;;;;;;7.55;1.30;;;15.50;70.30;;;;;;4919415;29;20063;-74
2023/01/07 15:29:25;;;;;;;;;;;15.60;70.30;;;;;;4902141;29;20134;-72
2023/01/07 15:32:02;;;;;;;6.30;1.65;;;15.80;70.50;;;;;;4919705;29;19931;-72
2023/01/07 15:34:32;;;;;;;6.35;1.13;;;15.80;70.30;;;;;;4911817;29;20123;-72
2023/01/07 15:37:01;;;;;;;8.90;1.58;;;15.90;70.30;;;;;;4919238;29;20210;-73
2023/01/07 15:39:31;;;;;;;10.52;1.35;;;16.00;70.90;;;;;;4918164;29;20063;-71
2023/01/07 15:41:59;;;;;;;13.30;1.48;;;16.00;70.20;;;;;;4919342;29;20123;-71
2023/01/07 15:44:33;;;;;;;11.15;2.08;;;16.00;70.20;;;;;;4918852;29;20047;-73
2023/01/07 15:46:59;;;;;;;12.23;1.77;;;16.00;70.70;;;;;;4918823;29;20456;-71
2023/01/07 15:49:26;;;;;;;15.25;2.78;;;16.00;71.20;;;;;;4918995;29;20055;-73
2023/01/07 15:51:55;;;;;;;12.38;2.45;;;16.00;70.60;;;;;;4919250;29;20064;-75
2023/01/07 15:54:30;;;;;;;12.80;2.58;;;16.00;71.00;;;;;;4918932;29;20052;-73
2023/01/07 15:57:04;;;;;;;12.45;2.45;;;16.00;71.20;;;;;;4919308;29;20070;-72
2023/01/07 15:59:34;;;;;;;14.20;2.55;;;16.00;71.70;;;;;;4918873;29;20052;-73
2023/01/07 16:02:23;;;;;;;17.77;3.10;;;16.00;72.10;;;;;;4918330;29;20052;-78
2023/01/07 16:04:57;;;;;;;28.02;4.78;;;16.10;72.00;;;;;;4900019;29;20367;-75
2023/01/07 16:07:32;;;;;;;22.35;5.25;;;16.10;71.70;;;;;;4899826;29;20076;-76
2023/01/07 16:09:58;;;;;;;16.17;3.75;;;16.10;71.10;;;;;;4900096;29;20157;-78
2023/01/07 16:12:34;;;;;;;9.52;3.50;;;16.10;70.70;;;;;;4902241;29;20120;-75
2023/01/07 16:15:18;;;;;;;15.23;3.17;;;16.10;70.50;;;;;;4918739;29;20052;-78
2023/01/07 16:18:12;;;;;;;9.35;3.33;;;16.20;70.00;;;;;;4901808;29;20123;-75
2023/01/07 16:20:47;;;;;;;14.50;3.80;;;16.20;68.80;;;;;;4886175;29;20066;-72
2023/01/07 16:23:20;;;;;;;11.98;3.40;;;16.30;68.70;;;;;;4922410;29;20119;-74
2023/01/07 16:25:51;;;;;;;11.98;2.97;;;16.40;68.30;;;;;;4905839;29;20096;-75
2023/01/07 16:28:23;;;;;;;10.07;3.40;;;16.40;68.50;;;;;;4922594;29;20056;-76
2023/01/07 16:30:50;;;;;;;13.57;3.22;;;16.50;69.00;;;;;;4922470;29;20363;-75
2023/01/07 16:33:20;;;;;;;19.40;3.22;;;16.60;69.80;;;;;;4922416;29;20374;-72
2023/01/07 16:35:48;;;;;;;10.90;2.85;;;16.70;70.10;;;;;;4922572;29;20198;-73
2023/01/07 16:38:17;;;;;;;11.90;3.30;;;16.70;70.40;;;;;;4922616;29;20052;-73
2023/01/07 16:40:44;;;;;;;8.45;3.00;;;16.70;70.70;;;;;;4922708;29;20059;-73
2023/01/07 16:43:40;;;;;;;14.57;3.03;;;16.70;70.90;;;;;;4905945;29;20060;-74
2023/01/07 16:46:24;;;;;;;13.95;3.10;;;16.70;71.20;;;;;;4922285;29;20052;-72
2023/01/07 16:49:17;;;;;;;11.40;2.92;;;16.70;71.80;;;;;;4905462;29;20410;-75
2023/01/07 16:51:50;;;;;;;11.35;2.67;;;16.70;71.90;;;;;;4922101;29;20040;-75
2023/01/07 16:54:25;;;;;;;11.02;2.63;;;16.70;72.00;;;;;;4921947;29;20048;-75
2023/01/07 16:56:59;;;;;;;12.52;2.58;;;16.70;72.20;;;;;;4921675;29;20082;-74
2023/01/07 16:59:50;;;;;;;15.18;3.15;;;16.60;72.30;;;;;;4921883;29;20052;-75
2023/01/07 17:02:27;;;;;;;14.95;3.13;;;16.60;72.40;;;;;;4921997;29;20052;-73
2023/01/07 17:04:55;;;;;;;13.40;2.90;;;16.60;72.70;;;;;;4918607;29;20130;-73
2023/01/07 17:07:24;;;;;;;14.43;2.70;;;16.60;72.80;;;;;;4900939;29;20064;-75
2023/01/07 17:09:56;;;;;;;9.85;2.67;;;16.60;73.00;;;;;;4921781;29;20119;-74
2023/01/07 17:12:39;;;;;;;12.60;2.97;;;16.50;73.20;;;;;;4921274;29;20052;-75
2023/01/07 17:15:32;;;;;;;22.23;3.63;;;16.50;73.50;;;;;;4922058;29;20078;-75
2023/01/07 17:18:15;;;;;;;12.95;2.90;;;16.50;73.50;;;;;;4921230;29;20059;-77
2023/01/07 17:20:51;;;;;;;12.15;2.67;;;16.50;73.20;;;;;;4920052;29;20044;-76
2023/01/07 17:23:31;;;;;;;11.23;3.33;;;16.50;73.20;;;;;;4899542;29;20080;-74
2023/01/07 17:26:15;;;;;;;21.17;3.42;;;16.40;73.10;;;;;;4921867;29;20048;-75
2023/01/07 17:28:53;;;;;;;14.73;3.28;;;16.40;73.30;;;;;;4904983;29;20051;-74
2023/01/07 17:31:23;;;;;;;12.43;3.00;;;16.40;73.20;;;;;;4904951;29;20452;-76
2023/01/07 17:33:50;;;;;;;11.40;3.33;;;16.40;73.30;;;;;;4920007;29;20054;-73
2023/01/07 17:36:22;;;;;;;12.25;3.03;;;16.40;73.20;;;;;;4920776;29;20096;-73
2023/01/07 17:38:48;;;;;;;14.93;2.92;;;16.30;72.70;;;;;;4921344;29;20087;-79
2023/01/07 17:44:05;;;;;;;14.63;3.00;;;16.30;71.90;;;;;;4903988;29;20052;-75
2023/01/07 17:46:31;;;;;;;14.25;3.00;;;16.20;71.70;;;;;;4921164;29;20522;-75
2023/01/07 17:48:59;;;;;;;16.50;3.05;;;16.20;71.80;;;;;;4921288;29;20056;-74
2023/01/07 17:51:26;;;;;;;11.77;2.88;;;16.20;71.90;;;;;;4921155;29;20423;-74
2023/01/07 17:53:55;;;;;;;12.02;2.80;;;16.20;72.00;;;;;;4919846;29;20055;-76
2023/01/07 17:56:20;;;;;;;10.25;2.65;;;16.20;72.10;;;;;;4904782;29;20055;-74
2023/01/07 17:58:46;;;;;;;11.60;2.50;;;16.10;72.20;;;;;;4921173;29;20360;-74
2023/01/07 18:01:15;;;;;;;9.02;2.25;;;16.10;72.10;;;;;;4921045;29;20048;-75
2023/01/07 18:03:41;;;;;;;10.45;2.13;;;16.10;72.10;;;;;;4920518;29;20087;-74
2023/01/07 18:06:22;;;;;;;12.13;2.75;;;16.10;72.10;;;;;;4916689;29;20115;-75
2023/01/07 18:08:49;;;;;;;9.93;2.20;;;16.10;72.20;;;;;;4902389;29;20056;-76
2023/01/07 18:14:02;;;;;;;6.07;1.98;;;16.00;72.20;;;;;;4900409;29;20057;-74
2023/01/07 18:16:28;;;;;;;7.00;2.30;;;16.00;72.30;;;;;;4901618;29;20053;-75
2023/01/07 18:19:29;;;;;;;8.32;1.67;;;16.00;72.30;;;;;;4901724;29;20372;-78
2023/01/07 18:22:44;;;;;;;3.58;1.80;;;15.90;72.20;;;;;;4915017;29;20040;-77
2023/01/07 18:25:18;;;;;;;5.38;1.80;;;16.00;71.50;;;;;;4911778;29;20061;-73
2023/01/07 18:27:44;;;;;;;3.88;1.52;;;16.00;70.70;;;;;;4913132;29;20516;-74
2023/01/07 18:30:19;;;;;;;3.90;1.33;;;15.90;70.70;;;;;;4913038;29;20061;-77
2023/01/07 18:33:12;;;;;;;5.07;1.40;;;15.90;70.30;;;;;;4914770;29;20049;-78
2023/01/07 18:35:41;;;;;;;4.47;1.48;;;15.90;69.00;;;;;;4900771;29;20044;-78